Time;durP1;ratioP1;P1;durP2;ratioP2;P2;SDS_P1;SDS_P2;PMS_P1;PMS_P2;Temp;Humidity;BMP_temperature;BMP_pressure;BME280_temperature;BME280_humidity;BME280_pressure;Samples;Min_cycle;Max_cycle;Signal;HPM_P1;HPM_P2
2021/05/22 00:01:54;;;;;;;9.75;2.28;;;13.10;56.00;;;;;;5057493;28;20040;-78
2021/05/22 00:04:20;;;;;;;13.27;2.75;;;13.00;56.00;;;;;;5074931;28;20048;-77
2021/05/22 00:06:46;;;;;;;8.77;2.15;;;13.00;56.40;;;;;;5056891;28;20177;-76
2021/05/22 00:09:12;;;;;;;11.07;2.13;;;13.00;56.50;;;;;;5062919;28;20048;-79
2021/05/22 00:11:38;;;;;;;12.80;2.70;;;13.00;56.60;;;;;;5093429;28;20036;-76
2021/05/22 00:14:04;;;;;;;8.90;2.70;;;13.00;56.90;;;;;;5109678;28;20093;-77
2021/05/22 00:16:32;;;;;;;8.32;2.25;;;13.00;57.00;;;;;;5055728;28;20119;-77
2021/05/22 00:18:58;;;;;;;10.70;2.60;;;13.00;57.10;;;;;;5084326;28;20040;-77
2021/05/22 00:21:23;;;;;;;14.38;2.58;;;13.00;57.20;;;;;;5075840;28;20088;-78
2021/05/22 00:23:49;;;;;;;13.77;3.22;;;12.90;57.30;;;;;;5092121;28;20040;-79
2021/05/22 00:26:15;;;;;;;8.45;2.67;;;12.90;57.30;;;;;;5075517;28;20051;-76
2021/05/22 00:28:44;;;;;;;14.98;2.67;;;12.90;57.50;;;;;;5110724;28;20115;-77
2021/05/22 00:31:10;;;;;;;11.18;3.20;;;12.90;57.60;;;;;;5079774;28;20050;-78
2021/05/22 00:33:35;;;;;;;9.63;2.17;;;12.90;57.60;;;;;;5113343;28;20126;-79
2021/05/22 00:36:01;;;;;;;8.38;1.90;;;12.90;57.60;;;;;;5078109;28;20048;-76
2021/05/22 00:38:28;;;;;;;12.23;2.60;;;12.90;57.60;;;;;;5059623;28;20047;-77
2021/05/22 00:40:55;;;;;;;10.77;2.80;;;12.90;57.60;;;;;;5059014;28;20061;-77
2021/05/22 00:43:20;;;;;;;18.95;3.83;;;12.90;57.60;;;;;;5093537;28;20361;-77
2021/05/22 00:45:47;;;;;;;10.75;3.08;;;12.90;57.60;;;;;;5058947;28;20468;-78
2021/05/22 00:48:13;;;;;;;12.20;2.83;;;12.90;57.60;;;;;;5075924;28;20052;-78
2021/05/22 00:50:40;;;;;;;12.65;3.17;;;12.90;57.60;;;;;;5059453;28;20531;-76
2021/05/22 00:53:07;;;;;;;12.00;2.63;;;12.90;57.60;;;;;;5058993;28;20044;-79
2021/05/22 00:55:33;;;;;;;10.98;2.50;;;12.90;57.70;;;;;;5056752;28;20060;-79
2021/05/22 00:57:59;;;;;;;12.43;2.97;;;12.90;57.70;;;;;;5089073;28;20040;-77
2021/05/22 01:00:32;;;;;;;12.80;2.65;;;12.90;57.70;;;;;;5056373;28;20084;-78
2021/05/22 01:02:57;;;;;;;;;;;12.90;57.80;;;;;;5056288;28;20071;-76
2021/05/22 01:05:23;;;;;;;13.23;3.03;;;12.80;58.00;;;;;;5074115;28;20368;-78
2021/05/22 01:07:49;;;;;;;8.70;3.38;;;12.80;57.90;;;;;;5074710;28;20127;-77
2021/05/22 01:10:15;;;;;;;11.10;2.50;;;12.80;58.10;;;;;;5056500;28;20049;-77
2021/05/22 01:12:43;;;;;;;8.00;2.08;;;12.80;58.30;;;;;;5072359;28;20041;-80
2021/05/22 01:15:27;;;;;;;11.95;3.08;;;12.80;58.70;;;;;;5056022;28;20382;-79
2021/05/22 01:17:53;;;;;;;11.10;2.58;;;12.80;59.20;;;;;;5055333;28;20037;-77
2021/05/22 01:20:39;;;;;;;11.38;2.63;;;12.80;59.10;;;;;;5072432;28;20392;-77
2021/05/22 01:23:09;;;;;;;10.02;2.90;;;12.70;59.80;;;;;;5071970;28;20133;-76
2021/05/22 01:25:38;;;;;;;11.20;3.05;;;12.70;59.70;;;;;;5056066;28;20060;-79
2021/05/22 01:28:04;;;;;;;11.70;3.30;;;12.70;60.00;;;;;;5056372;28;20055;-79
2021/05/22 01:30:31;;;;;;;10.07;2.65;;;12.70;60.20;;;;;;5067478;28;20048;-78
2021/05/22 01:32:57;;;;;;;9.30;2.55;;;12.70;60.30;;;;;;5077665;28;20048;-77
2021/05/22 01:35:23;;;;;;;7.28;2.60;;;12.60;60.50;;;;;;5095231;28;20055;-78
2021/05/22 01:37:48;;;;;;;8.90;2.20;;;12.60;60.60;;;;;;5111705;28;20051;-78
2021/05/22 01:40:14;;;;;;;8.85;2.42;;;12.60;60.80;;;;;;5059983;28;20044;-77
2021/05/22 01:42:41;;;;;;;6.30;1.92;;;12.60;61.10;;;;;;5077923;28;20056;-76
2021/05/22 01:45:10;;;;;;;9.57;2.55;;;12.60;61.30;;;;;;5077777;28;20047;-78
2021/05/22 01:47:39;;;;;;;7.10;2.38;;;12.60;61.40;;;;;;5094612;28;20076;-77
2021/05/22 01:50:10;;;;;;;7.20;2.15;;;12.60;61.60;;;;;;5077485;28;20054;-78
2021/05/22 01:52:36;;;;;;;7.70;2.13;;;12.60;61.60;;;;;;5079062;28;20043;-77
2021/05/22 01:55:03;;;;;;;7.40;2.60;;;12.60;61.60;;;;;;5077139;28;20036;-76
2021/05/22 01:57:33;;;;;;;14.55;2.85;;;12.60;61.70;;;;;;5078288;28;20123;-77
2021/05/22 02:00:03;;;;;;;7.55;2.00;;;12.60;61.60;;;;;;5077564;28;20051;-76
2021/05/22 02:02:29;;;;;;;9.50;2.65;;;12.60;61.80;;;;;;5094131;28;20067;-77
2021/05/22 02:04:55;;;;;;;7.55;2.28;;;12.60;61.80;;;;;;5093468;28;20044;-77
2021/05/22 02:07:21;;;;;;;10.18;2.47;;;12.60;61.80;;;;;;5077671;28;20123;-77
2021/05/22 02:09:47;;;;;;;8.80;2.58;;;12.60;61.80;;;;;;5076992;28;20465;-77
2021/05/22 02:12:13;;;;;;;13.40;3.40;;;12.60;61.80;;;;;;5094101;28;20056;-78
2021/05/22 02:14:41;;;;;;;10.43;2.65;;;12.50;61.70;;;;;;5094363;28;20050;-77
2021/05/22 02:17:07;;;;;;;5.63;1.58;;;12.50;61.80;;;;;;5094195;28;20066;-80
2021/05/22 02:19:36;;;;;;;11.13;2.92;;;12.60;61.80;;;;;;5077711;28;20056;-79
2021/05/22 02:22:04;;;;;;;8.05;2.10;;;12.50;61.90;;;;;;5077676;28;20599;-77
2021/05/22 02:24:30;;;;;;;8.82;2.33;;;12.60;62.00;;;;;;5078360;28;20044;-76
2021/05/22 02:26:57;;;;;;;12.18;3.20;;;12.50;61.80;;;;;;5077534;28;20117;-79
2021/05/22 02:29:23;;;;;;;11.52;2.40;;;12.60;61.90;;;;;;5095170;28;20048;-77
2021/05/22 02:31:49;;;;;;;6.13;1.83;;;12.50;61.90;;;;;;5095246;28;20120;-78
2021/05/22 02:34:29;;;;;;;7.38;2.00;;;12.60;61.90;;;;;;5077279;28;20484;-77
2021/05/22 02:36:55;;;;;;;6.25;2.20;;;12.50;61.90;;;;;;5079472;28;20047;-80
2021/05/22 02:39:21;;;;;;;7.65;1.70;;;12.50;61.80;;;;;;5077304;28;20040;-77
2021/05/22 02:41:47;;;;;;;8.00;2.40;;;12.50;61.90;;;;;;5078137;28;20385;-76
2021/05/22 02:44:13;;;;;;;9.32;2.35;;;12.50;61.90;;;;;;5077554;28;20048;-77
2021/05/22 02:46:41;;;;;;;11.18;2.17;;;12.50;62.00;;;;;;5077997;28;20036;-78
2021/05/22 02:49:07;;;;;;;10.30;2.00;;;12.50;62.10;;;;;;5077239;28;20055;-79
2021/05/22 02:51:33;;;;;;;8.85;2.60;;;12.50;62.10;;;;;;5094515;28;20167;-77
2021/05/22 02:53:59;;;;;;;9.45;2.38;;;12.50;62.10;;;;;;5077020;28;20063;-78
2021/05/22 02:56:25;;;;;;;8.45;2.25;;;12.50;62.10;;;;;;5071641;28;20063;-77
2021/05/22 02:58:51;;;;;;;10.23;2.30;;;12.50;62.10;;;;;;5074397;28;20037;-77
2021/05/22 03:01:17;;;;;;;6.25;1.73;;;12.50;62.10;;;;;;5057569;28;20041;-77
2021/05/22 03:03:43;;;;;;;10.35;2.60;;;12.50;62.20;;;;;;5058426;28;20052;-77
2021/05/22 03:06:09;;;;;;;11.32;2.70;;;12.50;62.20;;;;;;5057989;28;20469;-75
2021/05/22 03:08:42;;;;;;;9.73;2.15;;;12.50;62.20;;;;;;5057357;28;20049;-79
2021/05/22 03:11:08;;;;;;;12.60;3.08;;;12.50;62.40;;;;;;5075502;28;20040;-77
2021/05/22 03:13:34;;;;;;;6.03;1.95;;;12.50;62.30;;;;;;5074890;28;20265;-79
2021/05/22 03:16:00;;;;;;;7.65;2.15;;;12.40;62.30;;;;;;5074179;28;20060;-78
2021/05/22 03:18:25;;;;;;;8.25;2.63;;;12.40;62.30;;;;;;5040761;28;20040;-77
2021/05/22 03:20:51;;;;;;;8.98;1.95;;;12.40;62.40;;;;;;5073419;28;20048;-77
2021/05/22 03:23:17;;;;;;;9.05;2.10;;;12.40;62.50;;;;;;5056011;28;20052;-76
2021/05/22 03:25:43;;;;;;;7.93;2.45;;;12.40;62.60;;;;;;5056361;28;20503;-76
2021/05/22 03:28:09;;;;;;;6.80;2.40;;;12.40;62.80;;;;;;5073954;28;20044;-77
2021/05/22 03:30:34;;;;;;;10.10;2.03;;;12.40;63.00;;;;;;5058154;28;20075;-77
2021/05/22 03:33:01;;;;;;;9.93;2.92;;;12.40;63.30;;;;;;5073983;28;20047;-80
2021/05/22 03:35:27;;;;;;;9.18;2.45;;;12.40;63.70;;;;;;5073753;28;20040;-76
2021/05/22 03:37:52;;;;;;;5.80;2.67;;;12.30;64.00;;;;;;5074259;28;20044;-77
2021/05/22 03:40:18;;;;;;;8.23;2.00;;;12.30;64.40;;;;;;5056097;28;20395;-77
2021/05/22 03:42:44;;;;;;;9.32;2.92;;;12.30;64.70;;;;;;5073793;28;20480;-77
2021/05/22 03:45:11;;;;;;;10.30;2.65;;;12.20;65.00;;;;;;5056238;28;20086;-76
2021/05/22 03:47:37;;;;;;;9.52;2.90;;;12.20;65.40;;;;;;5073358;28;20106;-79
2021/05/22 03:50:03;;;;;;;7.30;2.60;;;12.20;65.80;;;;;;5072515;28;20481;-75
2021/05/22 03:52:29;;;;;;;8.05;2.20;;;12.20;66.20;;;;;;5072957;28;20060;-80
2021/05/22 03:54:55;;;;;;;9.40;2.85;;;12.20;66.40;;;;;;5090513;28;20048;-77
2021/05/22 03:57:21;;;;;;;8.15;2.50;;;12.20;66.70;;;;;;5056389;28;20044;-76
2021/05/22 03:59:48;;;;;;;7.70;3.33;;;12.20;66.90;;;;;;5057216;28;20397;-77
2021/05/22 04:02:14;;;;;;;9.13;3.28;;;12.10;67.10;;;;;;5055200;28;20036;-77
2021/05/22 04:04:40;;;;;;;10.25;2.80;;;12.10;67.40;;;;;;5073281;28;20518;-77
2021/05/22 04:07:06;;;;;;;9.02;2.95;;;12.10;67.80;;;;;;5073675;28;20037;-79
2021/05/22 04:09:32;;;;;;;8.93;3.60;;;12.10;67.90;;;;;;5072710;28;20429;-76
2021/05/22 04:11:58;;;;;;;7.25;2.95;;;12.10;68.30;;;;;;5073765;28;20098;-78
2021/05/22 04:14:23;;;;;;;6.78;2.90;;;12.10;68.50;;;;;;5056334;28;20060;-78
2021/05/22 04:16:49;;;;;;;7.10;2.88;;;12.10;68.50;;;;;;5040315;28;20065;-78
2021/05/22 04:19:15;;;;;;;8.50;3.00;;;12.00;68.70;;;;;;5075309;28;20029;-79
2021/05/22 04:21:41;;;;;;;7.50;2.83;;;12.00;69.00;;;;;;5073292;28;20063;-77
2021/05/22 04:24:08;;;;;;;10.55;3.17;;;12.00;69.20;;;;;;5075298;28;20047;-77
2021/05/22 04:26:34;;;;;;;11.25;2.80;;;12.00;69.40;;;;;;5074843;28;20047;-75
2021/05/22 04:29:00;;;;;;;12.48;3.08;;;11.90;69.50;;;;;;5070405;28;20055;-74
2021/05/22 04:31:26;;;;;;;8.93;3.00;;;11.90;69.80;;;;;;5057494;28;20104;-76
2021/05/22 04:33:52;;;;;;;10.18;4.03;;;11.90;70.10;;;;;;5072854;28;20130;-76
2021/05/22 04:36:18;;;;;;;7.03;2.95;;;11.90;70.30;;;;;;5091167;28;20399;-75
2021/05/22 04:38:44;;;;;;;9.35;2.95;;;11.90;70.40;;;;;;5068108;28;20040;-77
2021/05/22 04:41:13;;;;;;;6.93;3.15;;;11.80;70.60;;;;;;5091190;28;20445;-75
2021/05/22 04:43:39;;;;;;;5.63;2.92;;;11.90;70.90;;;;;;5087982;28;20113;-79
2021/05/22 04:46:05;;;;;;;6.78;3.03;;;11.90;70.90;;;;;;5087433;28;20099;-75
2021/05/22 04:48:31;;;;;;;6.57;3.33;;;11.90;71.10;;;;;;5086618;28;20484;-75
2021/05/22 04:50:57;;;;;;;8.35;2.95;;;11.80;71.00;;;;;;5075320;28;20043;-75
2021/05/22 04:53:23;;;;;;;5.18;2.85;;;11.80;71.10;;;;;;5073991;28;20043;-76
2021/05/22 04:55:49;;;;;;;7.25;3.30;;;11.80;71.10;;;;;;5059676;28;20044;-76
2021/05/22 04:58:15;;;;;;;8.55;3.25;;;11.80;71.20;;;;;;5075787;28;20097;-80
2021/05/22 05:00:41;;;;;;;8.75;3.72;;;11.80;71.20;;;;;;5074120;28;20058;-77
2021/05/22 05:03:07;;;;;;;9.95;2.88;;;11.80;71.40;;;;;;5070464;28;20049;-77
2021/05/22 05:05:32;;;;;;;7.57;3.28;;;11.70;71.50;;;;;;5084137;28;20052;-77
2021/05/22 05:07:58;;;;;;;8.15;3.30;;;11.80;71.70;;;;;;5092840;28;20044;-77
2021/05/22 05:10:24;;;;;;;5.68;2.83;;;11.70;71.70;;;;;;5092427;28;20049;-77
2021/05/22 05:12:52;;;;;;;11.70;2.92;;;11.70;71.80;;;;;;5076336;28;20130;-78
2021/05/22 05:15:18;;;;;;;6.72;2.92;;;11.80;71.90;;;;;;5070230;28;20051;-80
2021/05/22 05:17:44;;;;;;;11.63;3.40;;;11.70;71.70;;;;;;5060901;28;20048;-78
2021/05/22 05:20:10;;;;;;;10.23;3.20;;;11.80;71.60;;;;;;5076147;28;20036;-78
2021/05/22 05:22:36;;;;;;;7.32;2.88;;;11.80;71.80;;;;;;5076082;28;20040;-79
2021/05/22 05:25:02;;;;;;;4.82;2.92;;;11.80;72.00;;;;;;5060488;28;20491;-79
2021/05/22 05:27:28;;;;;;;8.95;2.70;;;11.80;72.00;;;;;;5060135;28;20041;-77
2021/05/22 05:29:54;;;;;;;4.40;2.30;;;11.80;71.80;;;;;;5060775;28;20431;-78
2021/05/22 05:32:29;;;;;;;8.20;2.78;;;11.80;71.80;;;;;;5045412;28;20094;-78
2021/05/22 05:34:57;;;;;;;6.32;2.63;;;11.80;72.00;;;;;;5061140;28;20477;-77
2021/05/22 05:37:23;;;;;;;8.00;2.63;;;11.80;72.00;;;;;;5059630;28;20055;-78
2021/05/22 05:39:49;;;;;;;7.22;2.50;;;11.80;71.80;;;;;;5073509;28;20111;-74
2021/05/22 05:42:15;;;;;;;6.82;2.70;;;11.80;71.90;;;;;;5063575;28;20508;-77
2021/05/22 05:44:41;;;;;;;5.30;2.40;;;11.80;71.90;;;;;;5042990;28;20114;-78
2021/05/22 05:47:07;;;;;;;6.93;2.63;;;11.80;72.00;;;;;;5060425;28;20063;-75
2021/05/22 05:49:33;;;;;;;6.07;2.83;;;11.70;72.10;;;;;;5087175;28;20123;-77
2021/05/22 05:51:59;;;;;;;7.43;2.60;;;11.70;72.20;;;;;;5080720;28;20040;-77
2021/05/22 05:54:25;;;;;;;5.65;3.28;;;11.80;72.20;;;;;;5080341;28;20050;-77
2021/05/22 05:56:51;;;;;;;8.00;3.25;;;11.80;72.40;;;;;;5079930;28;20036;-77
2021/05/22 05:59:17;;;;;;;3.28;2.50;;;11.80;72.40;;;;;;5064034;28;20109;-78
2021/05/22 06:01:42;;;;;;;6.70;2.78;;;11.80;72.50;;;;;;5061564;28;20139;-76
2021/05/22 06:04:08;;;;;;;6.03;2.75;;;11.80;72.60;;;;;;5077505;28;20044;-78
2021/05/22 06:06:34;;;;;;;8.65;2.63;;;11.80;72.70;;;;;;5060110;28;20041;-77
2021/05/22 06:09:02;;;;;;;6.80;2.67;;;11.80;72.70;;;;;;5060289;28;20511;-78
2021/05/22 06:11:29;;;;;;;7.20;2.88;;;11.80;72.60;;;;;;5060461;28;20040;-78
2021/05/22 06:13:55;;;;;;;8.15;3.80;;;11.80;72.70;;;;;;5093143;28;20085;-78
2021/05/22 06:16:27;;;;;;;5.53;2.60;;;11.90;72.80;;;;;;5091281;28;20043;-76
2021/05/22 06:18:53;;;;;;;7.22;2.47;;;11.90;72.90;;;;;;5081363;28;20085;-76
2021/05/22 06:21:19;;;;;;;6.00;3.00;;;11.90;73.10;;;;;;5096850;28;20040;-77
2021/05/22 06:23:48;;;;;;;7.07;2.60;;;11.90;73.10;;;;;;5079954;28;20097;-77
2021/05/22 06:26:17;;;;;;;5.18;3.00;;;11.90;73.10;;;;;;5063500;28;20104;-78
2021/05/22 06:28:42;;;;;;;9.02;2.47;;;12.00;73.20;;;;;;5063586;28;20059;-76
2021/05/22 06:31:08;;;;;;;7.30;2.78;;;12.00;73.30;;;;;;5080499;28;20040;-78
2021/05/22 06:33:34;;;;;;;5.68;2.72;;;12.00;73.40;;;;;;5062801;28;20052;-75
2021/05/22 06:36:00;;;;;;;7.13;2.78;;;12.00;73.40;;;;;;5079615;28;20127;-78
2021/05/22 06:38:26;;;;;;;3.80;2.22;;;12.00;73.30;;;;;;5097460;28;20055;-77
2021/05/22 06:40:52;;;;;;;8.00;3.47;;;12.00;73.40;;;;;;5060797;28;20052;-75
2021/05/22 06:43:18;;;;;;;7.22;3.10;;;12.10;73.50;;;;;;5072922;28;20099;-76
2021/05/22 06:45:47;;;;;;;7.22;2.72;;;12.10;73.60;;;;;;5075872;28;20444;-75
2021/05/22 06:48:13;;;;;;;7.32;2.90;;;12.10;73.60;;;;;;5059050;28;20072;-74
2021/05/22 06:50:42;;;;;;;7.55;2.67;;;12.10;73.70;;;;;;5041005;28;20044;-77
2021/05/22 06:53:08;;;;;;;7.57;2.35;;;12.10;73.70;;;;;;5072991;28;20114;-76
2021/05/22 06:55:34;;;;;;;7.80;3.10;;;12.20;73.60;;;;;;5070420;28;20048;-77
2021/05/22 06:58:01;;;;;;;9.63;2.95;;;12.20;73.80;;;;;;5055848;28;20039;-77
2021/05/22 07:00:27;;;;;;;5.07;2.90;;;12.20;73.80;;;;;;5072479;28;20048;-80
2021/05/22 07:02:53;;;;;;;5.28;3.05;;;12.20;74.10;;;;;;5080479;28;20559;-77
2021/05/22 07:05:19;;;;;;;9.40;3.08;;;12.20;74.20;;;;;;5071995;28;20066;-77
2021/05/22 07:07:45;;;;;;;10.02;3.42;;;12.20;74.20;;;;;;5051570;28;20134;-75
2021/05/22 07:10:11;;;;;;;9.85;3.05;;;12.20;74.40;;;;;;5091622;28;20127;-77
2021/05/22 07:12:39;;;;;;;6.50;3.03;;;12.20;74.40;;;;;;5091059;28;20475;-74
2021/05/22 07:15:07;;;;;;;6.97;2.88;;;12.20;74.60;;;;;;5077080;28;20059;-73
2021/05/22 07:17:33;;;;;;;7.15;3.10;;;12.20;74.60;;;;;;5061589;28;20135;-74
2021/05/22 07:19:59;;;;;;;8.75;3.10;;;12.30;74.70;;;;;;5080655;28;20131;-74
2021/05/22 07:22:24;;;;;;;5.38;3.00;;;12.20;74.90;;;;;;5080592;28;20036;-73
2021/05/22 07:24:50;;;;;;;7.25;3.03;;;12.30;75.00;;;;;;5075357;28;20044;-73
2021/05/22 07:27:19;;;;;;;7.15;3.35;;;12.30;75.00;;;;;;5075574;28;20044;-80
2021/05/22 07:29:49;;;;;;;10.77;3.45;;;12.20;75.40;;;;;;5080064;28;20162;-79
2021/05/22 07:32:15;;;;;;;5.82;3.13;;;12.20;75.50;;;;;;5079321;28;20392;-73
2021/05/22 07:34:41;;;;;;;5.95;2.90;;;12.40;75.50;;;;;;5070925;28;20051;-72
2021/05/22 07:37:07;;;;;;;6.22;3.50;;;12.40;75.40;;;;;;5078258;28;20039;-74
2021/05/22 07:39:33;;;;;;;4.75;3.13;;;12.40;75.30;;;;;;5090216;28;20471;-73
2021/05/22 07:41:59;;;;;;;5.97;3.03;;;12.40;75.40;;;;;;5073163;28;20051;-74
2021/05/22 07:44:25;;;;;;;7.78;2.90;;;12.40;75.40;;;;;;5089361;28;20040;-74
2021/05/22 07:46:50;;;;;;;7.68;3.47;;;12.40;75.60;;;;;;5089388;28;20385;-74
2021/05/22 07:49:37;;;;;;;9.40;3.35;;;12.30;75.50;;;;;;5090460;28;20048;-72
2021/05/22 07:52:06;;;;;;;7.28;2.83;;;12.40;75.90;;;;;;5090188;28;20067;-74
2021/05/22 07:54:35;;;;;;;7.40;2.97;;;12.30;75.70;;;;;;5090469;28;20066;-74
2021/05/22 07:57:03;;;;;;;6.38;3.08;;;12.40;75.80;;;;;;5089251;28;20448;-74
2021/05/22 07:59:29;;;;;;;8.48;3.70;;;12.40;75.90;;;;;;5089676;28;20508;-73
2021/05/22 08:01:55;;;;;;;7.38;3.50;;;12.30;76.20;;;;;;5072507;28;20044;-74
2021/05/22 08:04:21;;;;;;;7.00;3.70;;;12.30;76.40;;;;;;5090087;28;20484;-75
2021/05/22 08:06:47;;;;;;;6.43;3.42;;;12.30;76.40;;;;;;5072713;28;20036;-75
2021/05/22 08:09:12;;;;;;;6.53;3.50;;;12.30;76.50;;;;;;5072563;28;20056;-74
2021/05/22 08:11:38;;;;;;;6.40;4.18;;;12.30;76.60;;;;;;5095439;28;20037;-73
2021/05/22 08:14:04;;;;;;;5.72;3.20;;;12.40;76.80;;;;;;5052123;28;20185;-73
2021/05/22 08:16:30;;;;;;;8.48;4.10;;;12.40;76.70;;;;;;5069761;28;20072;-72
2021/05/22 08:18:56;;;;;;;5.45;3.65;;;12.40;76.60;;;;;;5070078;28;20044;-73
2021/05/22 08:21:24;;;;;;;5.50;3.47;;;12.40;76.70;;;;;;5052517;28;20516;-75
2021/05/22 08:23:51;;;;;;;8.30;4.05;;;12.40;76.80;;;;;;5073414;28;20064;-74
2021/05/22 08:26:16;;;;;;;7.45;3.75;;;12.40;76.80;;;;;;5079557;28;20127;-77
2021/05/22 08:28:42;;;;;;;4.35;2.83;;;12.40;76.80;;;;;;5069638;28;20124;-84
2021/05/22 08:31:08;;;;;;;5.78;2.65;;;12.50;76.90;;;;;;5068280;28;20036;-84
2021/05/22 08:33:34;;;;;;;7.38;2.80;;;12.90;76.80;;;;;;5060728;28;20071;-75
2021/05/22 08:35:59;;;;;;;7.70;3.42;;;13.30;75.80;;;;;;5068407;28;20052;-80
2021/05/22 08:38:25;;;;;;;7.32;3.42;;;13.60;75.00;;;;;;5054876;28;20473;-78
2021/05/22 08:40:51;;;;;;;5.25;4.03;;;13.90;74.40;;;;;;5057002;28;20036;-80
2021/05/22 08:43:17;;;;;;;6.82;4.47;;;14.00;73.60;;;;;;5064263;28;20123;-75
2021/05/22 08:45:43;;;;;;;8.10;4.72;;;13.90;73.40;;;;;;5038027;28;20092;-74
2021/05/22 08:48:09;;;;;;;6.05;4.10;;;13.60;73.60;;;;;;5077540;28;20052;-77
2021/05/22 08:50:38;;;;;;;5.60;4.85;;;13.50;73.80;;;;;;5091072;28;20032;-76
2021/05/22 08:53:03;;;;;;;5.47;4.97;;;13.40;74.10;;;;;;5104559;28;20044;-78
2021/05/22 08:55:29;;;;;;;8.27;5.13;;;13.30;74.50;;;;;;5064775;28;20098;-75
2021/05/22 08:57:55;;;;;;;5.47;4.35;;;13.20;74.70;;;;;;5074995;28;20497;-75
2021/05/22 09:00:24;;;;;;;5.18;4.35;;;13.10;75.10;;;;;;5094567;28;20048;-76
2021/05/22 09:02:50;;;;;;;7.93;4.90;;;13.00;75.30;;;;;;5092579;28;20043;-75
2021/05/22 09:05:28;;;;;;;8.00;4.82;;;12.90;75.70;;;;;;5109113;28;20482;-74
2021/05/22 09:07:54;;;;;;;5.93;5.18;;;12.90;76.10;;;;;;5077268;28;20079;-75
2021/05/22 09:10:30;;;;;;;6.15;5.00;;;12.90;76.00;;;;;;5073228;28;20082;-76
2021/05/22 09:13:03;;;;;;;5.88;4.32;;;12.90;76.30;;;;;;5087452;28;20132;-75
2021/05/22 09:15:33;;;;;;;8.32;5.07;;;12.80;76.40;;;;;;5074068;28;20044;-74
2021/05/22 09:18:01;;;;;;;7.50;4.80;;;12.80;76.40;;;;;;5100301;28;20047;-75
2021/05/22 09:20:28;;;;;;;5.05;4.50;;;12.80;76.40;;;;;;5089135;28;20044;-74
2021/05/22 09:23:11;;;;;;;5.45;4.95;;;12.70;76.60;;;;;;5093236;28;20044;-76
2021/05/22 09:25:38;;;;;;;5.35;4.65;;;12.80;77.00;;;;;;5093030;28;20051;-75
2021/05/22 09:28:04;;;;;;;5.60;4.70;;;12.70;76.80;;;;;;5075349;28;20043;-75
2021/05/22 09:30:31;;;;;;;5.38;4.68;;;12.70;77.70;;;;;;5075453;28;20044;-77
2021/05/22 09:32:57;;;;;;;6.78;5.05;;;12.80;77.20;;;;;;5092098;28;20515;-78
2021/05/22 09:35:23;;;;;;;6.45;5.10;;;12.80;77.20;;;;;;5091287;28;20050;-76
2021/05/22 09:37:53;;;;;;;6.85;5.07;;;12.90;77.50;;;;;;5076078;28;20062;-76
2021/05/22 09:40:27;;;;;;;8.15;5.07;;;12.80;77.90;;;;;;5091757;28;20121;-75
2021/05/22 09:42:53;;;;;;;8.00;5.32;;;12.90;78.10;;;;;;5092492;28;20404;-76
2021/05/22 09:45:24;;;;;;;6.53;4.82;;;12.90;78.10;;;;;;5058360;28;20058;-75
2021/05/22 09:47:50;;;;;;;7.75;5.55;;;12.90;78.10;;;;;;5071568;28;20039;-75
2021/05/22 09:50:32;;;;;;;6.43;5.55;;;12.90;78.20;;;;;;5056792;28;20695;-75
2021/05/22 09:52:59;;;;;;;6.07;5.47;;;12.90;78.30;;;;;;5086550;28;20437;-77
2021/05/22 09:55:25;;;;;;;6.18;5.45;;;12.90;78.10;;;;;;5083810;28;20462;-76
2021/05/22 09:57:53;;;;;;;5.88;5.00;;;12.90;77.90;;;;;;5107324;28;20036;-75
2021/05/22 10:00:26;;;;;;;6.22;5.30;;;13.00;77.90;;;;;;5074223;28;20186;-76
2021/05/22 10:03:01;;;;;;;5.72;5.22;;;12.90;78.10;;;;;;5076154;28;20258;-76
2021/05/22 10:05:35;;;;;;;7.22;5.30;;;12.90;78.50;;;;;;5108751;28;20105;-74
2021/05/22 10:08:06;;;;;;;9.07;6.00;;;12.90;78.50;;;;;;5076882;28;20040;-76
2021/05/22 10:10:45;;;;;;;7.88;5.50;;;12.90;78.50;;;;;;5093184;28;20454;-74
2021/05/22 10:13:11;;;;;;;6.50;5.82;;;12.90;78.60;;;;;;5087626;28;20054;-74
2021/05/22 10:15:37;;;;;;;7.10;5.38;;;12.90;78.70;;;;;;5052946;28;20052;-74
2021/05/22 10:18:03;;;;;;;7.95;6.00;;;12.90;78.80;;;;;;5076762;28;20056;-75
2021/05/22 10:20:29;;;;;;;7.57;5.70;;;12.90;78.80;;;;;;5069158;28;20122;-74
2021/05/22 10:22:55;;;;;;;9.70;6.47;;;13.00;78.80;;;;;;5083757;28;20127;-74
2021/05/22 10:25:20;;;;;;;10.13;7.55;;;13.00;78.60;;;;;;5076782;28;20122;-73
2021/05/22 10:27:46;;;;;;;7.65;6.75;;;13.00;78.80;;;;;;5079389;28;20052;-77
2021/05/22 10:30:12;;;;;;;10.05;6.53;;;13.00;79.10;;;;;;5076179;28;20496;-75
2021/05/22 10:32:39;;;;;;;8.80;7.00;;;13.00;79.50;;;;;;5073634;28;20554;-78
2021/05/22 10:35:10;;;;;;;7.85;6.13;;;13.00;79.50;;;;;;5067414;28;20094;-77
2021/05/22 10:37:36;;;;;;;7.70;6.45;;;13.00;79.80;;;;;;5058993;28;20071;-78
2021/05/22 10:40:02;;;;;;;10.50;7.25;;;13.00;79.90;;;;;;5079656;28;20518;-74
2021/05/22 10:42:31;;;;;;;8.43;6.75;;;13.00;79.80;;;;;;5073621;28;20036;-72
2021/05/22 10:44:57;;;;;;;10.10;6.85;;;13.00;80.00;;;;;;5078218;28;20104;-73
2021/05/22 10:47:27;;;;;;;6.97;6.22;;;13.00;80.10;;;;;;5071029;28;20044;-74
2021/05/22 10:49:59;;;;;;;7.95;6.15;;;13.00;80.30;;;;;;5056210;28;20142;-75
2021/05/22 10:52:32;;;;;;;7.88;5.82;;;12.90;80.20;;;;;;5084699;28;20074;-75
2021/05/22 10:55:08;;;;;;;9.02;5.65;;;13.00;80.60;;;;;;5086826;28;20040;-74
2021/05/22 10:57:46;;;;;;;6.30;5.28;;;13.00;80.50;;;;;;5079094;28;20052;-74
2021/05/22 11:00:21;;;;;;;8.70;4.90;;;13.10;80.60;;;;;;5082371;28;20043;-71
2021/05/22 11:02:54;;;;;;;10.80;5.68;;;13.20;80.30;;;;;;5084676;28;20051;-74
2021/05/22 11:05:29;;;;;;;13.02;5.05;;;13.30;80.00;;;;;;5083946;28;20040;-77
2021/05/22 11:08:04;;;;;;;6.78;4.72;;;13.40;80.00;;;;;;5081652;28;20043;-74
2021/05/22 11:10:47;;;;;;;6.95;5.50;;;13.50;80.20;;;;;;5076517;28;20036;-75
2021/05/22 11:13:22;;;;;;;9.88;5.55;;;13.80;80.50;;;;;;5085329;28;20042;-78
2021/05/22 11:15:50;;;;;;;8.25;5.38;;;14.10;79.80;;;;;;5073070;28;20388;-74
2021/05/22 11:18:16;;;;;;;7.97;6.25;;;14.30;78.80;;;;;;5083308;28;20048;-75
2021/05/22 11:20:44;;;;;;;7.10;6.32;;;14.30;78.30;;;;;;5095648;28;20044;-74
2021/05/22 11:23:10;;;;;;;8.85;7.28;;;14.40;78.20;;;;;;5053541;28;20403;-75
2021/05/22 11:25:44;;;;;;;8.45;7.28;;;14.40;78.00;;;;;;5069571;28;20048;-75
2021/05/22 11:28:12;;;;;;;8.68;7.47;;;14.30;77.90;;;;;;5072984;28;20373;-75
2021/05/22 11:30:42;;;;;;;12.10;8.98;;;14.30;77.70;;;;;;5054016;28;20075;-74
2021/05/22 11:33:20;;;;;;;12.45;8.50;;;14.30;77.60;;;;;;5077764;28;20060;-75
2021/05/22 11:35:48;;;;;;;10.18;8.98;;;14.20;77.50;;;;;;5079671;28;20552;-75
2021/05/22 11:38:17;;;;;;;13.18;9.38;;;14.10;77.60;;;;;;5073056;28;20424;-74
2021/05/22 11:40:43;;;;;;;10.35;9.35;;;14.10;77.70;;;;;;5073478;28;20055;-74
2021/05/22 11:43:12;;;;;;;12.32;10.48;;;14.10;77.80;;;;;;5085523;28;20088;-72
2021/05/22 11:45:48;;;;;;;10.43;8.60;;;14.10;78.00;;;;;;5075246;28;20048;-74
2021/05/22 11:48:33;;;;;;;8.45;6.38;;;14.10;77.90;;;;;;5053431;28;20068;-73
2021/05/22 11:51:06;;;;;;;8.00;6.10;;;14.10;77.70;;;;;;5060132;28;20135;-74
2021/05/22 11:53:32;;;;;;;9.43;5.75;;;14.10;77.60;;;;;;5059865;28;20052;-75
2021/05/22 11:56:03;;;;;;;5.15;4.30;;;14.20;77.40;;;;;;5072579;28;20084;-70
2021/05/22 11:58:29;;;;;;;7.95;5.20;;;14.30;77.00;;;;;;5105747;28;20040;-71
2021/05/22 12:01:00;;;;;;;7.60;4.32;;;14.60;77.20;;;;;;5077892;28;20040;-75
2021/05/22 12:03:27;;;;;;;7.07;3.85;;;14.70;76.00;;;;;;5086636;28;20036;-77
2021/05/22 12:05:54;;;;;;;5.88;4.20;;;14.80;75.30;;;;;;5069497;28;20049;-73
2021/05/22 12:08:21;;;;;;;9.30;4.88;;;15.10;75.20;;;;;;5067729;28;20509;-73
2021/05/22 12:10:47;;;;;;;8.88;4.20;;;15.30;74.70;;;;;;5073178;28;20528;-73
2021/05/22 12:13:13;;;;;;;7.55;4.63;;;15.50;73.70;;;;;;5085226;28;20045;-77
2021/05/22 12:15:43;;;;;;;9.68;4.28;;;15.60;73.40;;;;;;5035746;28;20048;-75
2021/05/22 12:18:09;;;;;;;8.82;4.05;;;15.80;73.10;;;;;;5061273;28;20037;-74
2021/05/22 12:20:52;;;;;;;7.22;3.80;;;16.00;72.20;;;;;;5064906;28;20086;-75
2021/05/22 12:23:31;;;;;;;9.52;3.92;;;16.10;70.40;;;;;;5078609;28;20036;-75
2021/05/22 12:25:58;;;;;;;6.93;3.95;;;16.10;70.00;;;;;;5083218;28;20051;-77
2021/05/22 12:28:24;;;;;;;7.35;3.92;;;16.00;70.00;;;;;;5063191;28;20087;-79
2021/05/22 12:30:54;;;;;;;8.13;4.30;;;15.90;69.80;;;;;;5065799;28;20129;-76
2021/05/22 12:33:20;;;;;;;24.50;11.35;;;16.00;69.90;;;;;;5083444;28;20043;-75
2021/05/22 12:36:00;;;;;;;20.63;9.80;;;16.10;69.80;;;;;;5102985;28;20517;-74
2021/05/22 12:38:43;;;;;;;139.13;56.10;;;16.10;69.30;;;;;;5058135;28;20051;-78
2021/05/22 12:41:11;;;;;;;65.18;25.60;;;16.10;71.70;;;;;;5080382;28;20040;-74
2021/05/22 12:43:45;;;;;;;66.32;27.17;;;15.90;70.70;;;;;;5092412;28;20181;-75
2021/05/22 12:46:23;;;;;;;23.58;10.73;;;15.80;71.10;;;;;;5059069;28;20153;-75
2021/05/22 12:48:49;;;;;;;11.57;6.35;;;15.70;70.80;;;;;;5089089;28;20040;-75